createdAt,value
2018-12-22T00:02:23.836Z,89.28
2018-12-22T00:04:52.116Z,89.52
2018-12-22T00:07:20.373Z,89.49
2018-12-22T00:09:48.615Z,89.77
2018-12-22T00:12:16.875Z,90.04
2018-12-22T00:14:45.115Z,89.69
2018-12-22T00:17:13.362Z,89.38
2018-12-22T00:19:41.628Z,89.97
2018-12-22T00:22:09.899Z,88.80
2018-12-22T00:24:38.149Z,89.14
2018-12-22T00:27:06.513Z,88.99
2018-12-22T00:29:34.784Z,89.49
2018-12-22T00:32:03.032Z,89.25
2018-12-22T00:34:31.285Z,89.35
2018-12-22T00:36:59.542Z,89.11
2018-12-22T00:39:27.792Z,89.37
2018-12-22T00:41:56.032Z,89.44
2018-12-22T00:44:24.287Z,89.91
2018-12-22T00:46:52.539Z,90.28
2018-12-22T00:49:20.844Z,89.71
2018-12-22T00:51:49.106Z,89.76
2018-12-22T00:54:18.105Z,89.56
2018-12-22T00:56:46.428Z,89.59
2018-12-22T00:59:14.683Z,89.23
2018-12-22T01:01:42.931Z,89.81
2018-12-22T01:04:11.176Z,89.33
2018-12-22T01:06:39.436Z,90.69
2018-12-22T01:09:07.740Z,90.20
2018-12-22T01:11:36.020Z,90.85
2018-12-22T01:14:04.402Z,90.50
2018-12-22T01:16:32.637Z,90.48
2018-12-22T01:19:00.896Z,91.00
2018-12-22T01:21:29.135Z,91.12
2018-12-22T01:23:57.387Z,91.42
2018-12-22T01:26:25.717Z,91.16
2018-12-22T01:28:53.960Z,91.73
2018-12-22T01:31:22.200Z,92.15
2018-12-22T01:33:50.456Z,92.42
2018-12-22T01:36:18.698Z,92.50
2018-12-22T01:38:46.938Z,93.75
2018-12-22T01:41:15.202Z,94.30
2018-12-22T01:43:43.434Z,95.17
2018-12-22T01:46:11.683Z,95.00
2018-12-22T01:48:39.933Z,95.97
2018-12-22T01:51:08.174Z,96.25
2018-12-22T01:53:36.559Z,96.82
2018-12-22T01:56:04.948Z,97.17
2018-12-22T01:58:33.199Z,97.87
2018-12-22T02:01:01.547Z,98.34
2018-12-22T02:03:29.776Z,98.62
2018-12-22T02:05:58.009Z,99.23
2018-12-22T02:08:26.263Z,100.00
2018-12-22T02:10:54.508Z,100.00
2018-12-22T02:13:22.774Z,100.00
2018-12-22T02:15:51.007Z,100.00
2018-12-22T02:18:19.259Z,100.00
2018-12-22T02:20:47.519Z,100.00
2018-12-22T02:23:15.771Z,100.00
2018-12-22T02:25:44.016Z,100.00
2018-12-22T02:28:12.278Z,100.00
2018-12-22T02:30:40.509Z,100.00
2018-12-22T02:33:08.765Z,100.00
2018-12-22T02:35:37.028Z,100.00
2018-12-22T02:38:05.322Z,100.00
2018-12-22T02:40:33.560Z,100.00
2018-12-22T02:43:01.812Z,100.00
2018-12-22T02:45:30.109Z,100.00
2018-12-22T02:47:58.449Z,100.00
2018-12-22T02:50:26.707Z,100.00
2018-12-22T02:52:54.939Z,100.00
2018-12-22T02:55:23.185Z,100.00
2018-12-22T02:57:51.532Z,100.00
2018-12-22T03:00:19.843Z,100.00
2018-12-22T03:02:48.116Z,100.00
2018-12-22T03:05:16.493Z,100.00
2018-12-22T03:07:44.729Z,100.00
2018-12-22T03:10:13.109Z,100.00
2018-12-22T03:12:41.380Z,100.00
2018-12-22T03:15:09.687Z,100.00
2018-12-22T03:17:37.931Z,99.79
2018-12-22T03:20:06.499Z,100.00
2018-12-22T03:22:34.745Z,100.00
2018-12-22T03:25:02.991Z,100.00
2018-12-22T03:27:31.228Z,100.00
2018-12-22T03:29:59.492Z,100.00
2018-12-22T03:32:27.737Z,100.00
2018-12-22T03:34:55.984Z,100.00
2018-12-22T03:37:24.259Z,100.00
2018-12-22T03:39:52.513Z,100.00
2018-12-22T03:42:20.760Z,100.00
2018-12-22T03:44:49.020Z,100.00
2018-12-22T03:47:17.267Z,100.00
2018-12-22T03:49:45.516Z,100.00
2018-12-22T03:52:13.764Z,100.00
2018-12-22T03:54:42.016Z,100.00
2018-12-22T03:57:10.257Z,100.00
2018-12-22T03:59:38.520Z,100.00
2018-12-22T04:02:06.756Z,100.00
2018-12-22T04:04:35.021Z,100.00
2018-12-22T04:07:03.316Z,99.84
2018-12-22T04:09:31.616Z,100.00
2018-12-22T04:11:59.861Z,99.67
2018-12-22T04:14:28.109Z,99.94
2018-12-22T04:16:56.409Z,100.00
2018-12-22T04:19:24.814Z,100.00
2018-12-22T04:21:53.052Z,100.00
2018-12-22T04:24:21.316Z,100.00
2018-12-22T04:26:49.557Z,100.00
2018-12-22T04:29:17.793Z,100.00
2018-12-22T04:31:46.056Z,100.00
2018-12-22T04:34:14.295Z,100.00
2018-12-22T04:36:42.536Z,100.00
2018-12-22T04:39:10.788Z,100.00
2018-12-22T04:41:39.048Z,100.00
2018-12-22T04:44:07.344Z,100.00
2018-12-22T04:46:35.587Z,100.00
2018-12-22T04:49:03.993Z,100.00
2018-12-22T04:51:32.231Z,100.00
2018-12-22T04:54:00.477Z,100.00
2018-12-22T04:56:28.727Z,100.00
2018-12-22T04:58:56.977Z,100.00
2018-12-22T05:01:25.275Z,100.00
2018-12-22T05:03:53.530Z,100.00
2018-12-22T05:06:21.767Z,100.00
2018-12-22T05:08:50.033Z,100.00
2018-12-22T05:11:18.480Z,100.00
2018-12-22T05:13:46.807Z,100.00
2018-12-22T05:16:15.077Z,100.00
2018-12-22T05:18:43.314Z,100.00
2018-12-22T05:21:11.560Z,100.00
2018-12-22T05:23:39.811Z,100.00
2018-12-22T05:26:08.060Z,100.00
2018-12-22T05:28:36.308Z,100.00
2018-12-22T05:31:04.578Z,100.00
2018-12-22T05:33:32.817Z,100.00
2018-12-22T05:36:01.060Z,100.00
2018-12-22T05:38:29.318Z,100.00
2018-12-22T05:40:57.615Z,100.00
2018-12-22T05:43:25.850Z,100.00
2018-12-22T05:45:54.113Z,100.00
2018-12-22T05:48:22.389Z,100.00
2018-12-22T05:50:50.704Z,100.00
2018-12-22T05:53:18.962Z,100.00
2018-12-22T05:55:47.206Z,100.00
2018-12-22T05:58:15.449Z,100.00
2018-12-22T06:00:43.695Z,100.00
2018-12-22T06:03:11.954Z,100.00
2018-12-22T06:05:40.284Z,100.00
2018-12-22T06:08:08.547Z,100.00
2018-12-22T06:10:36.778Z,100.00
2018-12-22T06:13:05.047Z,100.00
2018-12-22T06:15:33.406Z,100.00
2018-12-22T06:18:01.727Z,100.00
2018-12-22T06:20:29.986Z,100.00
2018-12-22T06:22:58.271Z,100.00
2018-12-22T06:25:26.523Z,100.00
2018-12-22T06:27:54.779Z,100.00
2018-12-22T06:30:23.024Z,100.00
2018-12-22T06:32:51.257Z,100.00
2018-12-22T06:35:19.497Z,100.00
2018-12-22T06:37:47.742Z,100.00
2018-12-22T06:40:16.000Z,100.00
2018-12-22T06:42:44.248Z,100.00
2018-12-22T06:45:12.545Z,100.00
2018-12-22T06:47:40.803Z,100.00
2018-12-22T06:50:09.108Z,100.00
2018-12-22T06:52:37.355Z,100.00
2018-12-22T06:55:05.670Z,100.00
2018-12-22T06:57:34.148Z,100.00
2018-12-22T07:00:02.528Z,100.00
2018-12-22T07:02:30.819Z,100.00
2018-12-22T07:04:59.078Z,100.00
2018-12-22T07:07:27.321Z,100.00
2018-12-22T07:09:55.589Z,100.00
2018-12-22T07:12:23.840Z,100.00
2018-12-22T07:14:52.102Z,100.00
2018-12-22T07:17:20.348Z,100.00
2018-12-22T07:19:48.598Z,100.00
2018-12-22T07:22:16.845Z,100.00
2018-12-22T07:24:45.086Z,100.00
2018-12-22T07:27:13.331Z,100.00
2018-12-22T07:29:41.596Z,100.00
2018-12-22T07:32:09.836Z,100.00
2018-12-22T07:34:38.071Z,100.00
2018-12-22T07:37:06.500Z,100.00
2018-12-22T07:39:34.964Z,100.00
2018-12-22T07:42:03.478Z,100.00
2018-12-22T07:44:31.739Z,98.96
2018-12-22T07:46:59.994Z,100.00
2018-12-22T07:49:28.276Z,100.00
2018-12-22T07:51:56.524Z,100.00
2018-12-22T07:54:25.772Z,100.00
2018-12-22T07:56:53.997Z,100.00
2018-12-22T07:59:22.251Z,100.00
2018-12-22T08:01:50.491Z,99.30
2018-12-22T08:04:18.722Z,99.60
2018-12-22T08:06:46.975Z,99.69
2018-12-22T08:09:15.212Z,99.37
2018-12-22T08:11:43.450Z,98.83
2018-12-22T08:14:11.707Z,100.00
2018-12-22T08:16:39.949Z,100.00
2018-12-22T08:19:08.303Z,100.00
2018-12-22T08:21:36.570Z,100.00
2018-12-22T08:24:04.849Z,100.00
2018-12-22T08:26:33.127Z,100.00
2018-12-22T08:29:01.497Z,100.00
2018-12-22T08:31:29.724Z,99.62
2018-12-22T08:33:57.984Z,100.00
2018-12-22T08:36:26.220Z,99.96
2018-12-22T08:38:54.502Z,98.46
2018-12-22T08:41:22.751Z,99.42
2018-12-22T08:43:50.988Z,98.16
2018-12-22T08:46:19.230Z,97.21
2018-12-22T08:48:47.480Z,98.11
2018-12-22T08:51:16.046Z,96.91
2018-12-22T08:53:44.435Z,97.10
2018-12-22T08:56:12.673Z,97.37
2018-12-22T08:58:40.909Z,96.57
2018-12-22T09:01:09.152Z,95.20
2018-12-22T09:03:37.379Z,96.08
2018-12-22T09:06:06.627Z,94.64
2018-12-22T09:08:34.858Z,94.67
2018-12-22T09:11:03.136Z,93.81
2018-12-22T09:13:31.483Z,93.88
2018-12-22T09:15:59.728Z,91.20
2018-12-22T09:18:28.460Z,90.93
2018-12-22T09:20:56.842Z,90.86
2018-12-22T09:23:25.112Z,90.83
2018-12-22T09:25:53.372Z,90.33
2018-12-22T09:28:21.680Z,90.17
2018-12-22T09:30:49.913Z,89.68
2018-12-22T09:33:18.136Z,89.79
2018-12-22T09:35:46.387Z,90.35
2018-12-22T09:38:14.627Z,90.78
2018-12-22T09:40:43.499Z,90.57
2018-12-22T09:43:11.731Z,91.75
2018-12-22T09:45:39.982Z,90.41
2018-12-22T09:48:08.229Z,90.18
2018-12-22T09:50:36.460Z,91.11
2018-12-22T09:53:04.796Z,89.26
2018-12-22T09:55:33.106Z,90.75
2018-12-22T09:58:01.344Z,92.46
2018-12-22T10:00:29.591Z,92.74
2018-12-22T10:02:57.843Z,92.21
2018-12-22T10:05:26.116Z,92.05
2018-12-22T10:07:54.343Z,91.46
2018-12-22T10:10:22.632Z,91.77
2018-12-22T10:12:50.880Z,91.29
2018-12-22T10:15:19.119Z,90.36
2018-12-22T10:17:47.357Z,91.68
2018-12-22T10:20:15.604Z,91.48
2018-12-22T10:22:43.840Z,89.70
2018-12-22T10:25:12.074Z,88.29
2018-12-22T10:27:40.335Z,88.04
2018-12-22T10:30:11.347Z,88.49
2018-12-22T10:32:39.597Z,89.28
2018-12-22T10:35:16.548Z,89.81
2018-12-22T10:37:44.824Z,90.37
2018-12-22T10:40:13.071Z,91.87
2018-12-22T10:42:41.305Z,90.77
2018-12-22T10:45:09.602Z,89.55
2018-12-22T10:47:38.047Z,88.23
2018-12-22T10:50:07.305Z,88.31
2018-12-22T10:52:35.553Z,87.23
2018-12-22T10:55:04.717Z,86.49
2018-12-22T10:57:32.951Z,86.88
2018-12-22T11:00:01.323Z,85.61
2018-12-22T11:02:29.599Z,85.81
2018-12-22T11:04:57.953Z,84.92
2018-12-22T11:07:26.303Z,84.65
2018-12-22T11:09:54.548Z,84.45
2018-12-22T11:12:22.813Z,83.16
2018-12-22T11:14:51.072Z,82.45
2018-12-22T11:17:19.364Z,83.96
2018-12-22T11:19:47.651Z,83.66
2018-12-22T11:22:15.890Z,84.64
2018-12-22T11:24:44.126Z,84.16
2018-12-22T11:27:12.372Z,84.54
2018-12-22T11:29:40.730Z,85.80
2018-12-22T11:32:08.980Z,84.70
2018-12-22T11:34:37.217Z,82.84
2018-12-22T11:37:05.466Z,84.23
2018-12-22T11:39:33.714Z,83.05
2018-12-22T11:42:01.982Z,83.30
2018-12-22T11:44:30.235Z,82.72
2018-12-22T11:47:04.131Z,81.83
2018-12-22T11:49:32.380Z,82.44
2018-12-22T11:52:00.627Z,83.04
2018-12-22T11:54:28.852Z,82.56
2018-12-22T11:56:57.100Z,81.38
2018-12-22T11:59:26.600Z,80.79
2018-12-22T12:01:54.833Z,81.14
2018-12-22T12:04:23.063Z,81.74
2018-12-22T12:06:51.311Z,82.40
2018-12-22T12:09:19.623Z,81.58
2018-12-22T12:11:47.864Z,80.84
2018-12-22T12:14:16.116Z,81.16
2018-12-22T12:16:44.424Z,82.41
2018-12-22T12:19:15.035Z,83.40
2018-12-22T12:21:43.324Z,82.85
2018-12-22T12:24:11.745Z,83.07
2018-12-22T12:26:39.993Z,82.47
2018-12-22T12:29:08.277Z,83.30
2018-12-22T12:31:36.544Z,83.70
2018-12-22T12:34:04.845Z,81.92
2018-12-22T12:36:33.085Z,81.56
2018-12-22T12:39:01.335Z,81.12
2018-12-22T12:41:29.577Z,81.41
2018-12-22T12:43:57.915Z,81.93
2018-12-22T12:46:26.415Z,82.03
2018-12-22T12:48:54.712Z,82.87
2018-12-22T12:51:22.972Z,83.85
2018-12-22T12:53:51.220Z,83.61
2018-12-22T12:56:19.508Z,83.04
2018-12-22T12:58:48.664Z,83.97
2018-12-22T13:01:16.937Z,84.00
2018-12-22T13:03:45.315Z,84.23
2018-12-22T13:06:13.581Z,85.00
2018-12-22T13:08:41.845Z,86.11
2018-12-22T13:11:10.124Z,86.47
2018-12-22T13:13:43.517Z,88.02
2018-12-22T13:16:11.797Z,88.22
2018-12-22T13:18:40.079Z,89.43
2018-12-22T13:21:09.987Z,90.21
2018-12-22T13:23:38.236Z,90.42
2018-12-22T13:26:06.532Z,90.47
2018-12-22T13:28:34.780Z,89.49
2018-12-22T13:31:03.097Z,90.91
2018-12-22T13:33:31.828Z,90.92
2018-12-22T13:36:00.289Z,91.47
2018-12-22T13:38:28.748Z,91.52
2018-12-22T13:40:56.984Z,91.62
2018-12-22T13:43:25.244Z,92.09
2018-12-22T13:45:53.487Z,92.39
2018-12-22T13:48:22.033Z,92.73
2018-12-22T13:50:50.676Z,92.45
2018-12-22T13:53:19.068Z,90.62
2018-12-22T13:55:47.311Z,90.87
2018-12-22T13:58:15.579Z,90.73
2018-12-22T14:00:44.276Z,90.03
2018-12-22T14:03:12.733Z,88.89
2018-12-22T14:05:40.970Z,88.34
2018-12-22T14:08:09.271Z,89.65
2018-12-22T14:10:37.568Z,87.56
2018-12-22T14:13:05.800Z,89.35
2018-12-22T14:15:34.296Z,90.63
2018-12-22T14:18:26.443Z,91.07
2018-12-22T14:20:54.840Z,90.92
2018-12-22T14:23:28.156Z,92.00
2018-12-22T14:25:56.395Z,90.04
2018-12-22T14:28:24.639Z,91.33
2018-12-22T14:30:52.961Z,90.64
2018-12-22T14:33:21.246Z,89.89
2018-12-22T14:35:49.735Z,87.92
2018-12-22T14:38:17.980Z,90.09
2018-12-22T14:40:46.292Z,90.94
2018-12-22T14:43:14.522Z,91.62
2018-12-22T14:45:42.869Z,92.94
2018-12-22T14:48:11.212Z,90.72
2018-12-22T14:50:39.435Z,93.13
2018-12-22T14:53:07.761Z,96.47
2018-12-22T14:55:36.108Z,99.80
2018-12-22T14:58:06.016Z,99.86
2018-12-22T15:00:34.371Z,100.00
2018-12-22T15:03:02.714Z,100.00
2018-12-22T15:05:30.968Z,100.00
2018-12-22T15:07:59.267Z,100.00
2018-12-22T15:10:28.077Z,100.00
2018-12-22T15:12:56.319Z,100.00
2018-12-22T15:15:24.605Z,100.00
2018-12-22T15:17:52.896Z,100.00
2018-12-22T15:20:30.275Z,100.00
2018-12-22T15:22:59.375Z,98.72
2018-12-22T15:25:28.157Z,98.07
2018-12-22T15:27:56.439Z,97.12
2018-12-22T15:30:24.679Z,95.35
2018-12-22T15:32:54.880Z,96.10
2018-12-22T15:35:23.292Z,95.85
2018-12-22T15:37:51.535Z,96.89
2018-12-22T15:40:19.840Z,95.92
2018-12-22T15:42:48.099Z,96.52
2018-12-22T15:45:18.003Z,97.86
2018-12-22T15:47:47.046Z,98.62
2018-12-22T15:50:30.380Z,99.84
2018-12-22T15:52:59.575Z,100.00
2018-12-22T15:55:27.811Z,100.00
2018-12-22T15:57:56.759Z,100.00
2018-12-22T16:00:25.123Z,100.00
2018-12-22T16:02:53.630Z,100.00
2018-12-22T16:05:22.084Z,98.58
2018-12-22T16:07:50.318Z,100.00
2018-12-22T16:10:18.551Z,100.00
2018-12-22T16:12:46.827Z,100.00
2018-12-22T16:15:21.249Z,100.00
2018-12-22T16:17:49.503Z,98.49
2018-12-22T16:20:17.823Z,98.36
2018-12-22T16:22:53.276Z,98.58
2018-12-22T16:25:21.714Z,98.99
2018-12-22T16:27:50.817Z,98.27
2018-12-22T16:30:27.595Z,98.36
2018-12-22T16:33:01.549Z,98.67
2018-12-22T16:35:26.180Z,99.14
2018-12-22T16:37:54.415Z,98.78
2018-12-22T16:40:22.655Z,98.95
2018-12-22T16:42:51.012Z,96.42
2018-12-22T16:45:19.395Z,97.01
2018-12-22T16:47:47.740Z,97.36
2018-12-22T16:50:17.067Z,97.35
2018-12-22T16:52:45.308Z,96.06
2018-12-22T16:55:16.573Z,96.36
2018-12-22T16:57:57.132Z,96.01
2018-12-22T17:00:32.176Z,96.24
2018-12-22T17:03:00.575Z,94.73
2018-12-22T17:05:28.954Z,95.55
2018-12-22T17:07:57.236Z,96.15
2018-12-22T17:10:26.628Z,94.42
2018-12-22T17:12:54.907Z,94.61
2018-12-22T17:15:23.940Z,94.78
2018-12-22T17:17:52.383Z,94.97
2018-12-22T17:20:20.668Z,95.62
2018-12-22T17:26:00.636Z,95.39
2018-12-22T17:28:28.956Z,95.55
2018-12-22T17:30:57.283Z,95.72
2018-12-22T17:33:25.535Z,95.58
2018-12-22T17:35:53.868Z,95.74
2018-12-22T17:38:22.327Z,95.91
2018-12-22T17:40:50.640Z,94.97
2018-12-22T17:43:18.887Z,95.25
2018-12-22T17:45:47.192Z,95.97
2018-12-22T17:48:15.476Z,95.08
2018-12-22T17:50:43.744Z,95.61
2018-12-22T17:53:12.019Z,95.01
2018-12-22T17:55:40.308Z,95.05
2018-12-22T17:58:08.554Z,95.06
2018-12-22T18:00:36.875Z,95.07
2018-12-22T18:03:08.509Z,95.18
2018-12-22T18:05:36.799Z,94.61
2018-12-22T18:08:05.124Z,95.11
2018-12-22T18:10:33.374Z,94.59
2018-12-22T18:13:01.777Z,94.42
2018-12-22T18:15:30.202Z,94.63
2018-12-22T18:17:58.608Z,95.02
2018-12-22T18:20:26.949Z,95.71
2018-12-22T18:22:55.292Z,95.38
2018-12-22T18:25:23.652Z,94.79
2018-12-22T18:27:53.896Z,95.87
2018-12-22T18:30:22.165Z,96.30
2018-12-22T18:32:50.457Z,94.42
2018-12-22T18:35:18.743Z,93.93
2018-12-22T18:37:47.011Z,94.38
2018-12-22T18:40:22.605Z,94.45
2018-12-22T18:42:50.965Z,94.53
2018-12-22T18:45:19.270Z,93.81
2018-12-22T18:47:47.520Z,94.39
2018-12-22T18:50:21.616Z,93.95
2018-12-22T18:52:49.868Z,93.47
2018-12-22T18:55:18.259Z,94.38
2018-12-22T18:57:49.904Z,94.67
2018-12-22T19:00:21.972Z,94.58
2018-12-22T19:02:51.003Z,94.62
2018-12-22T19:05:20.350Z,94.40
2018-12-22T19:07:49.065Z,94.75
2018-12-22T19:10:25.349Z,94.66
2018-12-22T19:12:53.702Z,93.67
2018-12-22T19:15:22.067Z,93.40
2018-12-22T19:17:51.420Z,93.94
2018-12-22T19:20:34.405Z,94.78
2018-12-22T19:23:02.753Z,95.35
2018-12-22T19:25:31.058Z,94.60
2018-12-22T19:27:59.333Z,94.62
2018-12-22T19:30:27.613Z,94.45
2018-12-22T19:32:55.943Z,93.46
2018-12-22T19:35:24.219Z,93.57
2018-12-22T19:37:52.460Z,93.72
2018-12-22T19:40:20.736Z,93.89
2018-12-22T19:42:49.001Z,93.31
2018-12-22T19:45:17.331Z,93.32
2018-12-22T19:47:45.619Z,94.18
2018-12-22T19:50:13.906Z,93.25
2018-12-22T19:52:42.161Z,93.65
2018-12-22T19:55:10.466Z,93.46
2018-12-22T19:57:39.693Z,93.81
2018-12-22T20:00:08.131Z,92.84
2018-12-22T20:02:36.375Z,93.03
2018-12-22T20:05:06.199Z,93.42
2018-12-22T20:07:34.519Z,93.39
2018-12-22T20:10:02.883Z,93.48
2018-12-22T20:12:31.147Z,93.32
2018-12-22T20:14:59.449Z,92.67
2018-12-22T20:17:27.982Z,92.87
2018-12-22T20:19:56.305Z,92.44
2018-12-22T20:22:24.638Z,92.26
2018-12-22T20:24:52.987Z,92.38
2018-12-22T20:27:21.314Z,92.09
2018-12-22T20:29:49.757Z,91.90
2018-12-22T20:32:18.064Z,91.87
2018-12-22T20:34:46.467Z,92.56
2018-12-22T20:37:14.745Z,92.92
2018-12-22T20:39:43.040Z,93.39
2018-12-22T20:42:11.520Z,92.88
2018-12-22T20:44:39.816Z,93.21
2018-12-22T20:47:08.141Z,94.33
2018-12-22T20:49:36.493Z,94.09
2018-12-22T20:52:05.438Z,93.85
2018-12-22T20:54:33.758Z,94.13
2018-12-22T20:57:02.399Z,94.31
2018-12-22T20:59:30.861Z,94.72
2018-12-22T21:01:59.160Z,95.63
2018-12-22T21:04:28.223Z,95.51
2018-12-22T21:06:56.609Z,94.66
2018-12-22T21:09:24.912Z,93.56
2018-12-22T21:11:53.206Z,92.51
2018-12-22T21:14:21.479Z,92.54
2018-12-22T21:16:49.832Z,92.98
2018-12-22T21:19:18.132Z,92.55
2018-12-22T21:21:46.539Z,92.09
2018-12-22T21:24:15.056Z,92.57
2018-12-22T21:26:43.353Z,92.10
2018-12-22T21:29:11.672Z,92.59
2018-12-22T21:31:40.025Z,92.72
2018-12-22T21:34:08.429Z,94.09
2018-12-22T21:36:36.774Z,94.37
2018-12-22T21:39:06.295Z,95.18
2018-12-22T21:41:34.571Z,94.88
2018-12-22T21:44:02.829Z,95.07
2018-12-22T21:46:31.089Z,94.97
2018-12-22T21:48:59.342Z,95.03
2018-12-22T21:51:27.639Z,95.87
2018-12-22T21:53:56.324Z,96.07
2018-12-22T21:56:24.815Z,96.09
2018-12-22T21:58:53.093Z,96.47
2018-12-22T22:01:21.423Z,96.32
2018-12-22T22:03:49.716Z,96.40
2018-12-22T22:06:18.013Z,95.42
2018-12-22T22:08:46.301Z,95.66
2018-12-22T22:11:14.597Z,96.50
2018-12-22T22:13:42.909Z,96.48
2018-12-22T22:16:11.194Z,96.93
2018-12-22T22:18:39.623Z,96.78
2018-12-22T22:21:07.913Z,96.70
2018-12-22T22:23:36.388Z,96.86
2018-12-22T22:26:04.790Z,97.82
2018-12-22T22:28:33.163Z,97.75
2018-12-22T22:31:01.442Z,98.14
2018-12-22T22:33:29.813Z,98.02
2018-12-22T22:35:58.295Z,98.12
2018-12-22T22:38:26.625Z,97.17
2018-12-22T22:40:54.937Z,98.11
2018-12-22T22:43:23.187Z,97.60
2018-12-22T22:45:51.492Z,97.50
2018-12-22T22:48:19.778Z,97.66
2018-12-22T22:50:48.048Z,98.54
2018-12-22T22:53:16.326Z,98.53
2018-12-22T22:55:44.597Z,99.02
2018-12-22T22:58:12.877Z,98.88
2018-12-22T23:00:42.176Z,97.75
2018-12-22T23:03:10.563Z,98.12
2018-12-22T23:05:38.869Z,98.62
2018-12-22T23:08:07.309Z,98.43
2018-12-22T23:10:35.584Z,97.89
2018-12-22T23:13:03.863Z,98.54
2018-12-22T23:15:32.108Z,98.42
2018-12-22T23:18:00.417Z,98.68
2018-12-22T23:20:28.660Z,98.28
2018-12-22T23:22:56.997Z,98.82
2018-12-22T23:25:25.248Z,99.12
2018-12-22T23:27:53.523Z,98.83
2018-12-22T23:30:21.771Z,98.99
2018-12-22T23:32:50.076Z,99.42
2018-12-22T23:35:18.324Z,99.89
2018-12-22T23:37:46.629Z,100.00
2018-12-22T23:40:15.111Z,100.00
2018-12-22T23:42:43.412Z,100.00
2018-12-22T23:45:11.649Z,100.00
2018-12-22T23:47:39.939Z,100.00
2018-12-22T23:50:08.315Z,100.00
2018-12-22T23:52:36.604Z,100.00
2018-12-22T23:55:05.473Z,100.00
2018-12-22T23:57:33.763Z,100.00
